Time;durP1;ratioP1;P1;durP2;ratioP2;P2;SDS_P1;SDS_P2;PMS_P1;PMS_P2;Temp;Humidity;BMP_temperature;BMP_pressure;BME280_temperature;BME280_humidity;BME280_pressure;Samples;Min_cycle;Max_cycle;Signal;HPM_P1;HPM_P2
2023/05/27 00:00:11;;;;;;;;;;;17.10;93.80;;;;;;5052735;28;19925;-78
2023/05/27 00:02:40;;;;;;;;;;;17.10;93.80;;;;;;5050093;28;19932;-78
2023/05/27 00:05:07;;;;;;;;;;;17.10;93.70;;;;;;5031435;28;20051;-78
2023/05/27 00:07:34;;;;;;;;;;;17.00;93.70;;;;;;5052320;28;20387;-78
2023/05/27 00:10:01;;;;;;;;;;;17.00;93.90;;;;;;5031839;28;20916;-78
2023/05/27 00:12:30;;;;;;;;;;;17.00;94.00;;;;;;5048475;28;20035;-80
2023/05/27 00:14:57;;;;;;;;;;;17.00;93.80;;;;;;5048724;28;19925;-79
2023/05/27 00:17:25;;;;;;;;;;;16.90;93.90;;;;;;5049404;28;20371;-78
2023/05/27 00:19:54;;;;;;;;;;;16.90;93.90;;;;;;5032413;28;19928;-78
2023/05/27 00:22:22;;;;;;;;;;;16.90;94.00;;;;;;5030098;28;19931;-79
2023/05/27 00:24:49;;;;;;;;;;;16.80;93.90;;;;;;5053159;28;20294;-78
2023/05/27 00:27:16;;;;;;;;;;;16.80;93.90;;;;;;5051466;28;20361;-79
2023/05/27 00:29:43;;;;;;;;;;;16.80;94.00;;;;;;5036354;28;19929;-78
2023/05/27 00:32:10;;;;;;;;;;;16.70;93.90;;;;;;5037830;28;19929;-77
2023/05/27 00:34:37;;;;;;;;;;;16.70;93.90;;;;;;5054362;28;19932;-79
2023/05/27 00:37:05;;;;;;;;;;;16.70;94.00;;;;;;5051408;28;20011;-78
2023/05/27 00:39:32;;;;;;;;;;;16.70;93.90;;;;;;5052782;28;20359;-78
2023/05/27 00:41:59;;;;;;;;;;;16.70;94.10;;;;;;5038357;28;19935;-78
2023/05/27 00:44:26;;;;;;;;;;;16.60;93.90;;;;;;5052736;28;19924;-80
2023/05/27 00:46:52;;;;;;;;;;;16.60;93.80;;;;;;5050944;28;19929;-78
2023/05/27 00:49:19;;;;;;;;;;;16.60;93.90;;;;;;5038536;28;19975;-79
2023/05/27 00:51:46;;;;;;;;;;;16.50;93.90;;;;;;5051422;28;19925;-78
2023/05/27 00:54:14;;;;;;;;;;;16.50;93.90;;;;;;5053239;28;19976;-78
2023/05/27 00:56:43;;;;;;;;;;;16.50;93.80;;;;;;5051152;28;19971;-77
2023/05/27 00:59:11;;;;;;;;;;;16.40;93.80;;;;;;5051947;28;19925;-78
2023/05/27 01:01:38;;;;;;;;;;;16.40;93.70;;;;;;5057869;28;20391;-79
2023/05/27 01:04:05;;;;;;;;;;;16.40;93.90;;;;;;5046629;28;19925;-78
2023/05/27 01:06:44;;;;;;;;;;;16.40;93.70;;;;;;5026074;28;20020;-79
2023/05/27 01:09:17;;;;;;;;;;;16.40;93.90;;;;;;5038973;28;20365;-78
2023/05/27 01:11:51;;;;;;;;;;;16.30;93.70;;;;;;5028854;28;20400;-79
2023/05/27 01:14:19;;;;;;;;;;;16.30;93.80;;;;;;5033436;28;19990;-78
2023/05/27 01:16:48;;;;;;;;;;;16.30;93.90;;;;;;5043562;28;19932;-79
2023/05/27 01:19:16;;;;;;;;;;;16.20;93.90;;;;;;5025828;28;19947;-79
2023/05/27 01:21:47;;;;;;;;;;;16.20;93.90;;;;;;5036591;28;20437;-77
2023/05/27 01:24:14;;;;;;;;;;;;;;;;;;5039496;28;19924;-78
2023/05/27 01:26:43;;;;;;;;;;;16.10;93.50;;;;;;5048267;28;19932;-78
2023/05/27 01:29:10;;;;;;;;;;;16.10;93.70;;;;;;5048880;28;19936;-78
2023/05/27 01:31:42;;;;;;;;;;;16.10;93.70;;;;;;5032546;28;19932;-78
2023/05/27 01:34:10;;;;;;;;;;;16.00;93.70;;;;;;5051845;28;19932;-78
2023/05/27 01:36:38;;;;;;;;;;;16.00;94.00;;;;;;5045128;28;19963;-78
2023/05/27 01:39:06;;;;;;;;;;;16.00;93.70;;;;;;5041296;28;19956;-78
2023/05/27 01:41:33;;;;;;;;;;;16.00;93.70;;;;;;5030443;28;19925;-78
2023/05/27 01:44:02;;;;;;;;;;;16.00;93.60;;;;;;5040149;28;19924;-79
2023/05/27 01:46:29;;;;;;;;;;;16.00;93.80;;;;;;5032386;28;20295;-78
2023/05/27 01:48:56;;;;;;;;;;;15.90;93.60;;;;;;5032880;28;20379;-78
2023/05/27 01:51:23;;;;;;;;;;;15.90;93.70;;;;;;5052064;28;20731;-78
2023/05/27 01:53:50;;;;;;;;;;;15.90;93.70;;;;;;5054013;28;20419;-78
2023/05/27 01:56:17;;;;;;;;;;;15.90;93.60;;;;;;5026874;28;19933;-78
2023/05/27 01:58:44;;;;;;;;;;;15.90;93.70;;;;;;5032249;28;19952;-78
2023/05/27 02:01:12;;;;;;;;;;;15.80;93.70;;;;;;5034615;28;19960;-78
2023/05/27 02:03:39;;;;;;;;;;;15.80;93.70;;;;;;5033171;28;20022;-78
2023/05/27 02:06:06;;;;;;;;;;;15.80;93.70;;;;;;5028971;28;20503;-78
2023/05/27 02:08:33;;;;;;;;;;;15.70;93.60;;;;;;5031102;28;19924;-78
2023/05/27 02:11:02;;;;;;;;;;;15.70;93.60;;;;;;5034916;28;19925;-78
2023/05/27 02:13:30;;;;;;;;;;;15.70;93.80;;;;;;5035668;28;20399;-78
2023/05/27 02:15:57;;;;;;;;;;;15.70;93.80;;;;;;5048769;28;19925;-77
2023/05/27 02:18:26;;;;;;;;;;;15.60;93.80;;;;;;5050590;28;19947;-78
2023/05/27 02:20:55;;;;;;;;;;;15.60;93.50;;;;;;5047023;28;20019;-78
2023/05/27 02:23:22;;;;;;;;;;;15.60;93.80;;;;;;5048981;28;19979;-79
2023/05/27 02:25:49;;;;;;;;;;;15.60;93.80;;;;;;5051496;28;19924;-78
2023/05/27 02:28:16;;;;;;;;;;;15.50;93.80;;;;;;5048969;28;19998;-79
2023/05/27 02:30:43;;;;;;;;;;;15.50;93.90;;;;;;5035225;28;19980;-78
2023/05/27 02:33:09;;;;;;;;;;;15.50;93.70;;;;;;5029083;28;19976;-78
2023/05/27 02:35:38;;;;;;;;;;;15.50;93.70;;;;;;5056783;28;19932;-78
2023/05/27 02:38:05;;;;;;;;;;;15.50;93.80;;;;;;5034311;28;19955;-79
2023/05/27 02:40:32;;;;;;;;;;;15.40;93.80;;;;;;5033166;28;20079;-78
2023/05/27 02:42:59;;;;;;;;;;;15.40;93.90;;;;;;5037012;28;19924;-78
2023/05/27 02:45:26;;;;;;;;;;;15.40;93.70;;;;;;5028998;28;19990;-78
2023/05/27 02:47:55;;;;;;;;;;;15.40;93.80;;;;;;5031512;28;19940;-78
2023/05/27 02:50:22;;;;;;;;;;;15.40;93.80;;;;;;5046592;28;19931;-79
2023/05/27 02:52:50;;;;;;;;;;;15.30;93.80;;;;;;5032313;28;19955;-78
2023/05/27 02:55:17;;;;;;;;;;;15.30;93.70;;;;;;5046336;28;19933;-78
2023/05/27 02:57:45;;;;;;;;;;;15.30;93.80;;;;;;5051088;28;20397;-79
2023/05/27 03:00:13;;;;;;;;;;;15.20;93.90;;;;;;5052898;28;19925;-78
2023/05/27 03:02:41;;;;;;;;;;;15.20;94.00;;;;;;5047383;28;19939;-77
2023/05/27 03:05:10;;;;;;;;;;;15.20;93.90;;;;;;5043954;28;19933;-75
2023/05/27 03:07:37;;;;;;;;;;;15.20;93.70;;;;;;5029292;28;20372;-77
2023/05/27 03:10:06;;;;;;;;;;;15.10;93.90;;;;;;5047904;28;19952;-77
2023/05/27 03:12:33;;;;;;;;;;;15.10;93.90;;;;;;5031516;28;19951;-77
2023/05/27 03:14:59;;;;;;;;;;;15.10;93.80;;;;;;5050727;28;19925;-77
2023/05/27 03:17:27;;;;;;;;;;;15.10;93.90;;;;;;5035279;28;19959;-77
2023/05/27 03:19:54;;;;;;;;;;;15.10;93.80;;;;;;5029788;28;20391;-77
2023/05/27 03:22:23;;;;;;;;;;;15.10;93.80;;;;;;5028973;28;20318;-77
2023/05/27 03:24:51;;;;;;;;;;;15.00;93.60;;;;;;5034546;28;19928;-77
2023/05/27 03:27:20;;;;;;;;;;;15.00;93.90;;;;;;5035280;28;19968;-77
2023/05/27 03:29:48;;;;;;;;;;;15.00;93.80;;;;;;5047509;28;19955;-77
2023/05/27 03:32:15;;;;;;;;;;;15.00;94.10;;;;;;5047651;28;20413;-78
2023/05/27 03:34:44;;;;;;;;;;;14.90;94.00;;;;;;5029385;28;19929;-78
2023/05/27 03:37:13;;;;;;;;;;;14.90;94.00;;;;;;5032854;28;19934;-78
2023/05/27 03:39:57;;;;;;;;;;;14.90;94.00;;;;;;5030223;28;20011;-78
2023/05/27 03:42:26;;;;;;;;;;;14.80;93.90;;;;;;5042706;28;19925;-78
2023/05/27 03:44:53;;;;;;;;;;;14.80;93.90;;;;;;5049189;28;20019;-78
2023/05/27 03:47:21;;;;;;;;;;;14.80;93.90;;;;;;5047932;28;20311;-78
2023/05/27 03:49:48;;;;;;;;;;;14.80;93.90;;;;;;5052375;28;19924;-78
2023/05/27 03:52:15;;;;;;;;;;;14.80;93.70;;;;;;5034693;28;19987;-78
2023/05/27 03:54:42;;;;;;;;;;;14.80;93.90;;;;;;5030444;28;19925;-78
2023/05/27 03:57:09;;;;;;;;;;;14.80;94.00;;;;;;5053691;28;19924;-78
2023/05/27 03:59:38;;;;;;;;;;;14.80;93.90;;;;;;5051783;28;19939;-78
2023/05/27 04:02:05;;;;;;;;;;;14.70;93.90;;;;;;5057805;28;19978;-77
2023/05/27 04:04:31;;;;;;;;;;;14.70;94.00;;;;;;5053424;28;19925;-78
2023/05/27 04:06:58;;;;;;;;;;;14.70;94.00;;;;;;5051705;28;19924;-79
2023/05/27 04:09:25;;;;;;;;;;;14.70;94.00;;;;;;5044319;28;19936;-77
2023/05/27 04:11:56;;;;;;;;;;;14.90;99.90;;;;;;5051933;28;21447;-77
2023/05/27 04:14:23;;;;;;;;;;;14.60;93.90;;;;;;5041774;28;19931;-77
2023/05/27 04:16:52;;;;;;;;;;;14.60;94.00;;;;;;5054106;28;19937;-78
2023/05/27 04:19:20;;;;;;;;;;;14.60;94.00;;;;;;5053884;28;20073;-78
2023/05/27 04:21:48;;;;;;;;;;;14.60;93.90;;;;;;5052573;28;19924;-78
2023/05/27 04:24:16;;;;;;;;;;;;;;;;;;5054457;28;19929;-78
2023/05/27 04:26:45;;;;;;;;;;;14.60;93.80;;;;;;5043620;28;19975;-80
2023/05/27 04:29:15;;;;;;;;;;;14.50;94.00;;;;;;5034766;28;19932;-79
2023/05/27 04:31:44;;;;;;;;;;;14.50;94.00;;;;;;5053434;28;20310;-78
2023/05/27 04:34:16;;;;;;;;;;;14.50;94.00;;;;;;5032269;28;19979;-78
2023/05/27 04:36:43;;;;;;;;;;;14.50;94.00;;;;;;5054059;28;19925;-79
2023/05/27 04:39:13;;;;;;;;;;;14.50;94.10;;;;;;5029889;28;19926;-78
2023/05/27 04:41:43;;;;;;;;;;;14.50;94.10;;;;;;5031606;28;19932;-78
2023/05/27 04:44:12;;;;;;;;;;;14.50;94.20;;;;;;5052559;28;20027;-78
2023/05/27 04:46:45;;;;;;;;;;;14.50;94.10;;;;;;5035476;28;19925;-78
2023/05/27 04:49:13;;;;;;;;;;;14.50;94.10;;;;;;5038085;28;20338;-78
2023/05/27 04:51:41;;;;;;;;;;;14.40;94.10;;;;;;5033964;28;19947;-78
2023/05/27 04:54:08;;;;;;;;;;;14.40;94.10;;;;;;5053500;28;19932;-78
2023/05/27 04:56:39;;;;;;;;;;;14.40;94.20;;;;;;5031161;28;20379;-78
2023/05/27 04:59:07;;;;;;;;;;;14.40;94.20;;;;;;5042077;28;19925;-79
2023/05/27 05:01:48;;;;;;;;;;;14.40;94.20;;;;;;5035682;28;19934;-78
2023/05/27 05:04:22;;;;;;;;;;;14.40;94.30;;;;;;5050897;28;19931;-78
2023/05/27 05:06:58;;;;;;;;;;;14.40;94.30;;;;;;5042232;28;19928;-78
2023/05/27 05:09:26;;;;;;;;;;;14.40;94.40;;;;;;5034942;28;20402;-78
2023/05/27 05:11:53;;;;;;;;;;;14.40;94.30;;;;;;5033729;28;19925;-78
2023/05/27 05:14:20;;;;;;;;;;;14.40;94.30;;;;;;5033179;28;19924;-78
2023/05/27 05:16:47;;;;;;;;;;;14.40;94.40;;;;;;5030071;28;20387;-78
2023/05/27 05:19:14;;;;;;;;;;;14.40;94.40;;;;;;5070902;28;20377;-78
2023/05/27 05:21:42;;;;;;;;;;;14.40;94.40;;;;;;5040573;28;20358;-78
2023/05/27 05:24:12;;;;;;;;;;;14.40;94.50;;;;;;5044655;28;20403;-78
2023/05/27 05:26:41;;;;;;;;;;;14.30;94.50;;;;;;5031359;28;19940;-78
2023/05/27 05:29:10;;;;;;;;;;;14.40;94.40;;;;;;5042459;28;19924;-78
2023/05/27 05:31:37;;;;;;;;;;;14.30;94.40;;;;;;5036276;28;19925;-78
2023/05/27 05:34:05;;;;;;;;;;;14.30;94.50;;;;;;5034340;28;19925;-78
2023/05/27 05:36:34;;;;;;;;;;;14.40;94.60;;;;;;5039047;28;19952;-78
2023/05/27 05:39:05;;;;;;;;;;;14.40;94.70;;;;;;5050498;28;19932;-78
2023/05/27 05:41:34;;;;;;;;;;;14.30;94.70;;;;;;5053240;28;19932;-78
2023/05/27 05:44:01;;;;;;;;;;;14.40;94.80;;;;;;5053139;28;19972;-78
2023/05/27 05:46:28;;;;;;;;;;;14.40;94.80;;;;;;5031430;28;19936;-77
2023/05/27 05:48:55;;;;;;;;;;;14.30;94.80;;;;;;5049847;28;19925;-78
2023/05/27 05:51:32;;;;;;;;;;;14.40;95.00;;;;;;5044333;28;19959;-78
2023/05/27 05:54:00;;;;;;;;;;;14.40;95.00;;;;;;5052332;28;20127;-78
2023/05/27 05:56:28;;;;;;;;;;;14.40;95.10;;;;;;5050863;28;20322;-78
2023/05/27 05:58:57;;;;;;;;;;;14.30;95.10;;;;;;5035879;28;19925;-77
2023/05/27 06:01:27;;;;;;;;;;;14.40;95.20;;;;;;5045407;28;19925;-78
2023/05/27 06:03:54;;;;;;;;;;;14.40;95.30;;;;;;5045131;28;20410;-78
2023/05/27 06:06:30;;;;;;;;;;;14.40;95.20;;;;;;5050179;28;19956;-78
2023/05/27 06:09:30;;;;;;;;;;;14.40;95.40;;;;;;5030512;28;19967;-78
2023/05/27 06:12:01;;;;;;;;;;;14.40;95.50;;;;;;5046428;28;20280;-78
2023/05/27 06:14:33;;;;;;;;;;;14.40;95.40;;;;;;5042608;28;19974;-78
2023/05/27 06:17:01;;;;;;;;;;;14.40;95.50;;;;;;5046229;28;20035;-79
2023/05/27 06:19:27;;;;;;;;;;;14.40;95.50;;;;;;5041885;28;19928;-79
2023/05/27 06:21:54;;;;;;;;;;;14.40;95.60;;;;;;5044704;28;19928;-77
2023/05/27 06:24:24;;;;;;;;;;;14.40;95.60;;;;;;5032336;28;20398;-78
2023/05/27 06:26:59;;;;;;;;;;;14.40;95.70;;;;;;5030668;28;19929;-78
2023/05/27 06:29:26;;;;;;;;;;;14.40;95.80;;;;;;5030928;28;19924;-79
2023/05/27 06:31:54;;;;;;;;;;;14.40;95.80;;;;;;5029409;28;19931;-78
2023/05/27 06:34:22;;;;;;;;;;;14.50;96.00;;;;;;5025684;28;19935;-78
2023/05/27 06:36:49;;;;;;;;;;;14.50;96.00;;;;;;5031186;28;19975;-78
2023/05/27 06:39:16;;;;;;;;;;;14.50;96.10;;;;;;5027256;28;19935;-78
2023/05/27 06:41:43;;;;;;;;;;;14.50;96.00;;;;;;5031530;28;19925;-77
2023/05/27 06:44:29;;;;;;;;;;;14.50;96.10;;;;;;5044084;28;19931;-78
2023/05/27 06:47:02;;;;;;;;;;;14.50;96.20;;;;;;5045591;28;19964;-76
2023/05/27 06:49:32;;;;;;;;;;;14.60;96.30;;;;;;5034187;28;19928;-79
2023/05/27 06:52:02;;;;;;;;;;;14.60;96.40;;;;;;5048538;28;19955;-78
2023/05/27 06:54:32;;;;;;;;;;;14.60;96.50;;;;;;5032624;28;19933;-79
2023/05/27 06:57:19;;;;;;;;;;;14.60;96.50;;;;;;5051679;28;19979;-78
2023/05/27 06:59:58;;;;;;;;;;;14.60;96.50;;;;;;5051325;28;19925;-78
2023/05/27 07:02:27;;;;;;;;;;;14.60;96.60;;;;;;5042384;28;19933;-79
2023/05/27 07:04:55;;;;;;;;;;;14.70;96.60;;;;;;5019565;28;19933;-78
2023/05/27 07:07:22;;;;;;;;;;;14.70;96.60;;;;;;5021208;28;20819;-78
2023/05/27 07:09:49;;;;;;;;;;;14.70;96.70;;;;;;5044403;28;19983;-78
2023/05/27 07:12:16;;;;;;;;;;;14.70;96.70;;;;;;5003978;28;19929;-78
2023/05/27 07:14:53;;;;;;;;;;;14.70;96.70;;;;;;5011543;28;19998;-78
2023/05/27 07:17:22;;;;;;;;;;;14.70;96.80;;;;;;5024548;28;20462;-79
2023/05/27 07:19:51;;;;;;;;;;;14.70;96.80;;;;;;5023331;28;19932;-79
2023/05/27 07:22:21;;;;;;;;;;;14.80;96.90;;;;;;5015346;28;19925;-79
2023/05/27 07:24:48;;;;;;;;;;;14.80;96.90;;;;;;5013788;28;19969;-79
2023/05/27 07:27:15;;;;;;;;;;;14.80;97.00;;;;;;5012131;28;19940;-78
2023/05/27 07:29:50;;;;;;;;;;;14.80;97.10;;;;;;5004749;28;19925;-78
2023/05/27 07:32:29;;;;;;;;;;;14.80;97.10;;;;;;5023241;28;19960;-78
2023/05/27 07:34:58;;;;;;;;;;;14.80;97.10;;;;;;5013036;28;19935;-78
2023/05/27 07:37:26;;;;;;;;;;;14.90;97.30;;;;;;5028692;28;20024;-78
2023/05/27 07:39:53;;;;;;;;;;;14.90;97.30;;;;;;5007462;28;19932;-79
2023/05/27 07:42:22;;;;;;;;;;;14.90;97.50;;;;;;5014177;28;20177;-78
2023/05/27 07:44:49;;;;;;;;;;;14.90;97.40;;;;;;5008660;28;19930;-78
2023/05/27 07:47:16;;;;;;;;;;;14.90;97.40;;;;;;5030808;28;19935;-79
2023/05/27 07:49:43;;;;;;;;;;;14.90;97.50;;;;;;5014456;28;19929;-78
2023/05/27 07:52:30;;;;;;;;;;;15.00;97.50;;;;;;5026027;28;19972;-78
2023/05/27 07:54:57;;;;;;;;;;;15.00;97.50;;;;;;5024904;28;20020;-79
2023/05/27 07:57:25;;;;;;;;;;;15.00;97.50;;;;;;5027077;28;20016;-79
2023/05/27 07:59:52;;;;;;;;;;;15.00;97.60;;;;;;5028902;28;19976;-79
2023/05/27 08:02:21;;;;;;;;;;;15.00;97.70;;;;;;5011495;28;19929;-78
2023/05/27 08:04:49;;;;;;;;;;;15.00;97.60;;;;;;5008698;28;19929;-79
2023/05/27 08:07:40;;;;;;;;;;;15.00;97.70;;;;;;5023199;28;19926;-78
2023/05/27 08:10:24;;;;;;;;;;;15.00;97.80;;;;;;5016257;28;19925;-79
2023/05/27 08:13:17;;;;;;;;;;;15.10;97.90;;;;;;5016502;28;19938;-78
2023/05/27 08:15:56;;;;;;;;;;;15.10;97.80;;;;;;5031533;28;19926;-79
2023/05/27 08:18:55;;;;;;;;;;;15.10;97.90;;;;;;4987495;28;19925;-79
2023/05/27 08:21:36;;;;;;;;;;;15.10;97.90;;;;;;5025044;28;19931;-79
2023/05/27 08:24:23;;;;;;;;;;;15.10;97.90;;;;;;5026587;28;19931;-78
2023/05/27 08:27:05;;;;;;;;;;;15.10;97.90;;;;;;5032487;28;19932;-78
2023/05/27 08:29:42;;;;;;;;;;;15.10;97.90;;;;;;5026288;28;19929;-79
2023/05/27 08:32:26;;;;;;;;;;;15.20;98.10;;;;;;5024091;28;19931;-78
2023/05/27 08:34:53;;;;;;;;;;;15.20;98.10;;;;;;5025693;28;19929;-77
2023/05/27 08:37:20;;;;;;;;;;;15.20;98.10;;;;;;5014627;28;20449;-78
2023/05/27 08:39:57;;;;;;;;;;;15.20;98.20;;;;;;5035567;28;19925;-78
2023/05/27 08:42:37;;;;;;;;;;;15.20;98.20;;;;;;5019910;28;19933;-79
2023/05/27 08:45:05;;;;;;;;;;;15.30;98.20;;;;;;5030123;28;19925;-78
2023/05/27 08:47:32;;;;;;;;;;;15.30;98.40;;;;;;5023329;28;19972;-79
2023/05/27 08:49:59;;;;;;;;;;;15.30;98.30;;;;;;5035424;28;19925;-78
2023/05/27 08:52:28;;;;;;;;;;;15.30;98.40;;;;;;5033007;28;19931;-78
2023/05/27 08:54:57;;;;;;;;;;;15.30;98.50;;;;;;5034806;28;19925;-77
2023/05/27 08:57:28;;;;;;;;;;;15.40;98.60;;;;;;5028131;28;19925;-78
2023/05/27 08:59:55;;;;;;;;;;;15.40;98.50;;;;;;5013004;28;20415;-78
2023/05/27 09:02:23;;;;;;;;;;;15.40;98.60;;;;;;5023042;28;20409;-78
2023/05/27 09:04:50;;;;;;;;;;;15.40;98.60;;;;;;5047618;28;19976;-78
2023/05/27 09:07:17;;;;;;;;;;;15.40;98.70;;;;;;5036598;28;20036;-79
2023/05/27 09:09:55;;;;;;;;;;;15.40;98.60;;;;;;5013891;28;20023;-78
2023/05/27 09:12:25;;;;;;;;;;;15.50;98.60;;;;;;5034196;28;19925;-78
2023/05/27 09:14:52;;;;;;;;;;;15.50;98.70;;;;;;5030537;28;19933;-79
2023/05/27 09:17:19;;;;;;;;;;;15.50;98.80;;;;;;5038710;28;19940;-78
2023/05/27 09:19:46;;;;;;;;;;;15.50;98.80;;;;;;5026191;28;19925;-79
2023/05/27 09:22:19;;;;;;;;;;;15.50;98.80;;;;;;5028946;28;19961;-79
2023/05/27 09:24:46;;;;;;;;;;;15.50;98.70;;;;;;5051769;28;19931;-79
2023/05/27 09:27:13;;;;;;;;;;;15.60;98.90;;;;;;5031592;28;19929;-78
2023/05/27 09:29:42;;;;;;;;;;;15.60;98.80;;;;;;5034428;28;19924;-79
2023/05/27 09:32:08;;;;;;;;;;;15.60;98.80;;;;;;5030527;28;19929;-78
2023/05/27 09:34:38;;;;;;;;;;;15.60;98.80;;;;;;5033138;28;19926;-78
2023/05/27 09:37:05;;;;;;;;;;;15.60;99.00;;;;;;5031280;28;19969;-79
2023/05/27 09:39:34;;;;;;;;;;;15.70;99.10;;;;;;5030860;28;19984;-79
2023/05/27 09:42:01;;;;;;;;;;;15.70;98.90;;;;;;5033960;28;19956;-79
2023/05/27 09:44:29;;;;;;;;;;;15.70;99.20;;;;;;5034108;28;19932;-78
2023/05/27 09:46:58;;;;;;;;;;;15.70;99.20;;;;;;5031251;28;20406;-78
2023/05/27 09:49:27;;;;;;;;;;;15.70;99.20;;;;;;5032597;28;19955;-80
2023/05/27 09:51:54;;;;;;;;;;;15.80;99.20;;;;;;5029991;28;19929;-79
2023/05/27 09:54:22;;;;;;;;;;;15.80;99.20;;;;;;5019858;28;19925;-79
2023/05/27 09:56:50;;;;;;;;;;;15.80;99.10;;;;;;5021684;28;19936;-79
2023/05/27 09:59:17;;;;;;;;;;;15.80;99.20;;;;;;5026572;28;19962;-79
2023/05/27 10:01:46;;;;;;;;;;;15.80;99.20;;;;;;5035872;28;19984;-78
2023/05/27 10:04:16;;;;;;;;;;;15.90;99.60;;;;;;5033684;28;20083;-79
2023/05/27 10:06:46;;;;;;;;;;;15.90;99.40;;;;;;5032807;28;19925;-79
2023/05/27 10:09:15;;;;;;;;;;;15.90;99.40;;;;;;5040170;28;21261;-79
2023/05/27 10:11:44;;;;;;;;;;;15.90;99.50;;;;;;5050989;28;19925;-79
2023/05/27 10:14:11;;;;;;;;;;;16.00;99.50;;;;;;5049313;28;19968;-79
2023/05/27 10:16:38;;;;;;;;;;;16.00;99.50;;;;;;5056311;28;20381;-77
2023/05/27 10:19:11;;;;;;;;;;;16.00;99.40;;;;;;5052539;28;19925;-79
2023/05/27 10:21:44;;;;;;;;;;;16.10;99.30;;;;;;5054735;28;20007;-79
2023/05/27 10:24:11;;;;;;;;;;;16.10;99.50;;;;;;5048556;28;20361;-79
2023/05/27 10:26:40;;;;;;;;;;;16.10;99.40;;;;;;5056940;28;20016;-79
2023/05/27 10:29:08;;;;;;;;;;;16.10;99.20;;;;;;5050392;28;19929;-78
2023/05/27 10:31:36;;;;;;;;;;;16.10;99.20;;;;;;5048687;28;19940;-79
2023/05/27 10:34:04;;;;;;;;;;;16.20;99.20;;;;;;5050723;28;19931;-80
2023/05/27 10:36:32;;;;;;;;;;;16.20;99.20;;;;;;5053012;28;20019;-79
2023/05/27 10:39:02;;;;;;;;;;;16.20;99.10;;;;;;5050938;28;20342;-78
2023/05/27 10:41:38;;;;;;;;;;;16.20;99.00;;;;;;5028598;28;19925;-78
2023/05/27 10:44:07;;;;;;;;;;;16.30;98.80;;;;;;5049365;28;19987;-79
2023/05/27 10:46:38;;;;;;;;;;;16.30;99.00;;;;;;5050086;28;20023;-79
2023/05/27 10:49:10;;;;;;;;;;;16.40;99.20;;;;;;5033901;28;19936;-79
2023/05/27 10:51:37;;;;;;;;;;;16.40;99.20;;;;;;5049838;28;19925;-80
2023/05/27 10:54:06;;;;;;;;;;;16.40;98.80;;;;;;5032973;28;19951;-79
2023/05/27 10:56:33;;;;;;;;;;;16.40;98.80;;;;;;5045303;28;19976;-79
2023/05/27 10:59:01;;;;;;;;;;;16.40;98.40;;;;;;5046796;28;20347;-79
2023/05/27 11:01:29;;;;;;;;;;;16.50;98.40;;;;;;5046931;28;19955;-79
2023/05/27 11:03:58;;;;;;;;;;;16.50;98.20;;;;;;5032887;28;20391;-79
2023/05/27 11:06:25;;;;;;;;;;;16.50;98.10;;;;;;5048429;28;21264;-79
2023/05/27 11:08:53;;;;;;;;;;;16.50;98.00;;;;;;5049909;28;19978;-79
2023/05/27 11:11:21;;;;;;;;;;;16.50;98.10;;;;;;5049106;28;20407;-79
2023/05/27 11:13:48;;;;;;;;;;;16.50;98.20;;;;;;5051179;28;20302;-79
2023/05/27 11:16:15;;;;;;;;;;;16.50;98.20;;;;;;5052944;28;20276;-79
2023/05/27 11:18:43;;;;;;;;;;;16.60;98.20;;;;;;5049707;28;20397;-80
2023/05/27 11:21:12;;;;;;;;;;;16.60;98.30;;;;;;5060435;28;20028;-79
2023/05/27 11:23:40;;;;;;;;;;;16.60;98.70;;;;;;5049761;28;19924;-79
2023/05/27 11:26:08;;;;;;;;;;;;;;;;;;5054263;28;19931;-79
2023/05/27 11:28:36;;;;;;;;;;;16.70;98.20;;;;;;5032639;28;20323;-79
2023/05/27 11:31:03;;;;;;;;;;;16.80;98.50;;;;;;5055246;28;19936;-77
2023/05/27 11:33:31;;;;;;;;;;;16.80;98.40;;;;;;5049084;28;19925;-78
2023/05/27 11:36:04;;;;;;;;;;;16.80;98.20;;;;;;5025558;28;19931;-78
2023/05/27 11:38:30;;;;;;;;;;;16.80;98.60;;;;;;5020830;28;20469;-79
2023/05/27 11:41:07;;;;;;;;;;;16.90;98.50;;;;;;5047082;28;20015;-79
2023/05/27 11:43:34;;;;;;;;;;;16.90;98.70;;;;;;5050182;28;19925;-79
2023/05/27 11:46:05;;;;;;;;;;;16.90;98.80;;;;;;5048357;28;19964;-78
2023/05/27 11:48:32;;;;;;;;;;;16.90;98.70;;;;;;5047348;28;19948;-79
2023/05/27 11:50:59;;;;;;;;;;;17.00;98.80;;;;;;5046974;28;20407;-78
2023/05/27 11:53:28;;;;;;;;;;;17.10;98.50;;;;;;5049527;28;19932;-79
2023/05/27 11:55:55;;;;;;;;;;;17.10;98.20;;;;;;5054183;28;19924;-79
2023/05/27 11:58:22;;;;;;;;;;;17.10;98.40;;;;;;5021521;28;20068;-79
2023/05/27 12:00:49;;;;;;;;;;;17.10;98.20;;;;;;5048564;28;20434;-79
2023/05/27 12:03:17;;;;;;;;;;;17.20;98.20;;;;;;5054089;28;19924;-80
2023/05/27 12:05:44;;;;;;;;;;;17.30;97.90;;;;;;5054357;28;19971;-79
2023/05/27 12:08:13;;;;;;;;;;;17.30;98.10;;;;;;5049266;28;19925;-79
2023/05/27 12:10:40;;;;;;;;;;;17.30;98.00;;;;;;5025303;28;19929;-79
2023/05/27 12:13:07;;;;;;;;;;;17.30;97.50;;;;;;5035988;28;19924;-79
2023/05/27 12:15:34;;;;;;;;;;;17.30;98.10;;;;;;5011788;28;19925;-79
2023/05/27 12:18:04;;;;;;;;;;;17.40;97.90;;;;;;5029452;28;19925;-79
2023/05/27 12:20:32;;;;;;;;;;;17.40;99.10;;;;;;5024165;28;19937;-79
2023/05/27 12:22:59;;;;;;;;;;;17.50;98.60;;;;;;5032806;28;19980;-79
2023/05/27 12:25:26;;;;;;;;;;;17.50;98.40;;;;;;5031329;28;20021;-80
2023/05/27 12:27:53;;;;;;;;;;;17.60;97.30;;;;;;5032451;28;19925;-79
2023/05/27 12:30:20;;;;;;;;;;;17.60;97.50;;;;;;5017535;28;19980;-79
2023/05/27 12:32:47;;;;;;;;;;;17.60;97.50;;;;;;5011922;28;19929;-79
2023/05/27 12:35:14;;;;;;;;;;;17.60;96.90;;;;;;5031795;28;19987;-79
2023/05/27 12:37:42;;;;;;;;;;;17.60;97.60;;;;;;5035572;28;19926;-79
2023/05/27 12:40:14;;;;;;;;;;;17.70;97.50;;;;;;5034345;28;19932;-79
2023/05/27 12:42:40;;;;;;;;;;;17.70;97.30;;;;;;5015214;28;19991;-79
2023/05/27 12:45:09;;;;;;;;;;;17.80;98.10;;;;;;5037136;28;20024;-79
2023/05/27 12:47:36;;;;;;;;;;;17.90;98.00;;;;;;5031229;28;20023;-80
2023/05/27 12:50:03;;;;;;;;;;;18.00;97.50;;;;;;5029252;28;19925;-79
2023/05/27 12:52:30;;;;;;;;;;;18.00;97.40;;;;;;5027027;28;20406;-79
2023/05/27 12:54:58;;;;;;;;;;;18.00;97.40;;;;;;5030056;28;19932;-80
2023/05/27 12:57:25;;;;;;;;;;;18.10;97.00;;;;;;5035151;28;20465;-79
2023/05/27 12:59:52;;;;;;;;;;;18.20;97.30;;;;;;5033370;28;19929;-79
2023/05/27 13:02:19;;;;;;;;;;;18.20;97.20;;;;;;5031619;28;19925;-78
2023/05/27 13:04:47;;;;;;;;;;;18.20;96.90;;;;;;5047844;28;19940;-79
2023/05/27 13:07:14;;;;;;;;;;;18.20;97.10;;;;;;5032619;28;20425;-79
2023/05/27 13:09:41;;;;;;;;;;;18.30;96.90;;;;;;5034639;28;19987;-80
2023/05/27 13:12:09;;;;;;;;;;;18.30;96.60;;;;;;5027577;28;20763;-79
2023/05/27 13:14:36;;;;;;;;;;;18.40;96.90;;;;;;5033223;28;19925;-78
2023/05/27 13:17:04;;;;;;;;;;;18.50;96.40;;;;;;5050399;28;19928;-79
2023/05/27 13:19:31;;;;;;;;;;;18.50;96.30;;;;;;5053772;28;19925;-78
2023/05/27 13:21:58;;;;;;;;;;;18.50;95.60;;;;;;5052533;28;19975;-79
2023/05/27 13:24:25;;;;;;;;;;;18.70;95.50;;;;;;5055142;28;20304;-79
2023/05/27 13:26:52;;;;;;;;;;;18.70;95.40;;;;;;5053041;28;20055;-79
2023/05/27 13:29:21;;;;;;;;;;;18.70;95.30;;;;;;5051924;28;20011;-79
2023/05/27 13:31:48;;;;;;;;;;;18.70;95.30;;;;;;5058602;28;19925;-80
2023/05/27 13:34:15;;;;;;;;;;;18.70;94.60;;;;;;5052456;28;19925;-78
2023/05/27 13:36:44;;;;;;;;;;;18.80;94.00;;;;;;5050108;28;20015;-79
2023/05/27 13:39:11;;;;;;;;;;;18.90;94.90;;;;;;5065557;28;19925;-79
2023/05/27 13:41:38;;;;;;;;;;;18.90;95.00;;;;;;5055641;28;19956;-78
2023/05/27 13:44:06;;;;;;;;;;;18.90;95.00;;;;;;5053839;28;19929;-79
2023/05/27 13:46:34;;;;;;;;;;;18.90;95.00;;;;;;5052606;28;19925;-79
2023/05/27 13:49:04;;;;;;;;;;;19.00;94.80;;;;;;5051706;28;19932;-79
2023/05/27 13:51:32;;;;;;;;;;;19.00;94.80;;;;;;5047431;28;19925;-79
2023/05/27 13:54:00;;;;;;;;;;;18.90;94.80;;;;;;5046459;28;19925;-78
2023/05/27 13:56:27;;;;;;;;;;;19.00;95.10;;;;;;5035218;28;19929;-80
2023/05/27 13:58:54;;;;;;;;;;;19.00;94.90;;;;;;5035483;28;19931;-79
2023/05/27 14:01:22;;;;;;;;;;;19.10;95.00;;;;;;5039619;28;20366;-79
2023/05/27 14:03:50;;;;;;;;;;;19.10;94.60;;;;;;5051684;28;20296;-79
2023/05/27 14:06:17;;;;;;;;;;;19.20;93.90;;;;;;5055768;28;19974;-79
2023/05/27 14:08:44;;;;;;;;;;;19.20;94.30;;;;;;5049771;28;20015;-78
2023/05/27 14:11:11;;;;;;;;;;;19.20;94.60;;;;;;5032116;28;19924;-79
2023/05/27 14:13:38;;;;;;;;;;;19.30;95.00;;;;;;5055317;28;19932;-79
2023/05/27 14:16:05;;;;;;;;;;;19.40;94.40;;;;;;5036905;28;20407;-79
2023/05/27 14:18:33;;;;;;;;;;;19.40;95.20;;;;;;5053261;28;20353;-79
2023/05/27 14:21:02;;;;;;;;;;;19.40;94.40;;;;;;5052543;28;19924;-79
2023/05/27 14:23:29;;;;;;;;;;;19.50;94.70;;;;;;5051585;28;19970;-79
2023/05/27 14:25:56;;;;;;;;;;;19.50;93.50;;;;;;5036089;28;20416;-79
2023/05/27 14:28:23;;;;;;;;;;;19.50;94.30;;;;;;5053843;28;19939;-79